sensor_id;sensor_type;location;lat;lon;timestamp;pressure;altitude;pressure_sealevel;temperature;humidity
76551;BME280;65393;53.160;18.170;2022-12-18T00:01:22;102929.46;;;-3.71;81.46
76551;BME280;65393;53.160;18.170;2022-12-18T00:03:51;102925.69;;;-3.70;81.49
76551;BME280;65393;53.160;18.170;2022-12-18T00:06:19;102922.71;;;-3.74;81.49
76551;BME280;65393;53.160;18.170;2022-12-18T00:08:46;102928.35;;;-3.76;81.55
76551;BME280;65393;53.160;18.170;2022-12-18T00:11:16;102934.59;;;-3.75;81.55
76551;BME280;65393;53.160;18.170;2022-12-18T00:13:44;102939.41;;;-3.76;81.55
76551;BME280;65393;53.160;18.170;2022-12-18T00:16:14;102945.09;;;-3.77;81.63
76551;BME280;65393;53.160;18.170;2022-12-18T00:18:42;102954.29;;;-3.80;81.66
76551;BME280;65393;53.160;18.170;2022-12-18T00:21:10;102959.84;;;-3.84;81.71
76551;BME280;65393;53.160;18.170;2022-12-18T00:23:39;102961.64;;;-3.89;81.80
76551;BME280;65393;53.160;18.170;2022-12-18T00:26:10;102960.52;;;-3.93;81.93
76551;BME280;65393;53.160;18.170;2022-12-18T00:28:37;102954.05;;;-3.96;82.14
76551;BME280;65393;53.160;18.170;2022-12-18T00:31:09;102960.96;;;-3.97;82.20
76551;BME280;65393;53.160;18.170;2022-12-18T00:33:38;102963.27;;;-3.96;82.03
76551;BME280;65393;53.160;18.170;2022-12-18T00:36:08;102964.39;;;-3.95;81.97
76551;BME280;65393;53.160;18.170;2022-12-18T00:38:35;102975.04;;;-3.91;81.98
76551;BME280;65393;53.160;18.170;2022-12-18T00:41:03;102982.09;;;-3.89;82.17
76551;BME280;65393;53.160;18.170;2022-12-18T00:43:30;102973.06;;;-3.89;82.13
76551;BME280;65393;53.160;18.170;2022-12-18T00:46:00;102973.48;;;-3.88;82.11
76551;BME280;65393;53.160;18.170;2022-12-18T00:48:27;102982.20;;;-3.87;81.93
76551;BME280;65393;53.160;18.170;2022-12-18T00:50:53;102986.35;;;-3.87;81.93
76551;BME280;65393;53.160;18.170;2022-12-18T00:53:20;102985.25;;;-3.88;82.01
76551;BME280;65393;53.160;18.170;2022-12-18T00:55:47;102992.05;;;-3.88;82.10
76551;BME280;65393;53.160;18.170;2022-12-18T00:58:16;102987.45;;;-3.89;82.00
76551;BME280;65393;53.160;18.170;2022-12-18T01:00:43;102991.66;;;-3.91;82.12
76551;BME280;65393;53.160;18.170;2022-12-18T01:03:13;102992.83;;;-3.92;82.13
76551;BME280;65393;53.160;18.170;2022-12-18T01:05:41;102991.27;;;-3.92;82.11
76551;BME280;65393;53.160;18.170;2022-12-18T01:08:08;102999.57;;;-3.92;82.12
76551;BME280;65393;53.160;18.170;2022-12-18T01:10:35;103004.10;;;-3.92;82.21
76551;BME280;65393;53.160;18.170;2022-12-18T01:13:01;103000.77;;;-3.95;82.30
76551;BME280;65393;53.160;18.170;2022-12-18T01:15:28;103005.58;;;-3.99;82.33
76551;BME280;65393;53.160;18.170;2022-12-18T01:17:55;103008.59;;;-4.01;82.30
76551;BME280;65393;53.160;18.170;2022-12-18T01:20:21;103010.41;;;-4.03;82.60
76551;BME280;65393;53.160;18.170;2022-12-18T01:22:48;103015.88;;;-4.04;82.83
76551;BME280;65393;53.160;18.170;2022-12-18T01:25:15;103015.78;;;-4.03;82.84
76551;BME280;65393;53.160;18.170;2022-12-18T01:27:43;103019.96;;;-4.00;82.80
76551;BME280;65393;53.160;18.170;2022-12-18T01:30:10;103016.73;;;-3.99;82.90
76551;BME280;65393;53.160;18.170;2022-12-18T01:32:37;103016.40;;;-3.98;82.80
76551;BME280;65393;53.160;18.170;2022-12-18T01:35:04;103018.58;;;-4.00;82.92
76551;BME280;65393;53.160;18.170;2022-12-18T01:37:31;103017.63;;;-4.01;83.08
76551;BME280;65393;53.160;18.170;2022-12-18T01:39:58;103022.67;;;-4.01;83.12
76551;BME280;65393;53.160;18.170;2022-12-18T01:42:25;103031.38;;;-3.97;82.94
76551;BME280;65393;53.160;18.170;2022-12-18T01:50:13;103045.11;;;-3.84;82.76
76551;BME280;65393;53.160;18.170;2022-12-18T01:52:42;103037.36;;;-3.84;82.80
76551;BME280;65393;53.160;18.170;2022-12-18T01:55:11;103033.35;;;-3.84;82.73
76551;BME280;65393;53.160;18.170;2022-12-18T01:57:39;103033.90;;;-3.84;82.66
76551;BME280;65393;53.160;18.170;2022-12-18T02:00:14;103037.36;;;-3.84;82.77
76551;BME280;65393;53.160;18.170;2022-12-18T02:02:44;103039.34;;;-3.83;82.73
76551;BME280;65393;53.160;18.170;2022-12-18T02:05:16;103048.36;;;-3.80;82.72
76551;BME280;65393;53.160;18.170;2022-12-18T02:10:28;103046.72;;;-3.72;82.63
76551;BME280;65393;53.160;18.170;2022-12-18T02:13:12;103048.46;;;-3.68;82.70
76551;BME280;65393;53.160;18.170;2022-12-18T02:18:36;103048.21;;;-3.70;82.69
76551;BME280;65393;53.160;18.170;2022-12-18T02:21:44;103050.08;;;-3.74;82.76
76551;BME280;65393;53.160;18.170;2022-12-18T02:24:27;103049.45;;;-3.76;82.75
76551;BME280;65393;53.160;18.170;2022-12-18T02:26:59;103050.73;;;-3.75;82.82
76551;BME280;65393;53.160;18.170;2022-12-18T02:29:36;103050.73;;;-3.75;82.65
76551;BME280;65393;53.160;18.170;2022-12-18T02:32:10;103057.64;;;-3.75;82.77
76551;BME280;65393;53.160;18.170;2022-12-18T02:34:41;103055.94;;;-3.75;82.87
76551;BME280;65393;53.160;18.170;2022-12-18T02:37:16;103058.95;;;-3.76;82.93
76551;BME280;65393;53.160;18.170;2022-12-18T02:39:47;103062.27;;;-3.79;82.87
76551;BME280;65393;53.160;18.170;2022-12-18T02:42:16;103062.44;;;-3.82;82.89
76551;BME280;65393;53.160;18.170;2022-12-18T02:44:49;103070.23;;;-3.83;82.90
76551;BME280;65393;53.160;18.170;2022-12-18T02:47:23;103075.00;;;-3.81;82.78
76551;BME280;65393;53.160;18.170;2022-12-18T02:52:49;103073.05;;;-3.82;82.80
76551;BME280;65393;53.160;18.170;2022-12-18T02:55:26;103079.04;;;-3.83;82.86
76551;BME280;65393;53.160;18.170;2022-12-18T03:01:07;103085.29;;;-3.83;82.84
76551;BME280;65393;53.160;18.170;2022-12-18T03:03:57;103085.80;;;-3.81;82.79
76551;BME280;65393;53.160;18.170;2022-12-18T03:09:01;103085.73;;;-3.82;82.71
76551;BME280;65393;53.160;18.170;2022-12-18T03:11:33;103089.29;;;-3.83;82.83
76551;BME280;65393;53.160;18.170;2022-12-18T03:14:21;103090.35;;;-3.86;82.65
76551;BME280;65393;53.160;18.170;2022-12-18T03:16:52;103093.90;;;-3.87;82.61
76551;BME280;65393;53.160;18.170;2022-12-18T03:19:22;103096.14;;;-3.88;82.74
76551;BME280;65393;53.160;18.170;2022-12-18T03:21:55;103100.00;;;-3.87;82.77
76551;BME280;65393;53.160;18.170;2022-12-18T03:24:26;103102.98;;;-3.86;82.74
76551;BME280;65393;53.160;18.170;2022-12-18T03:26:58;103106.30;;;-3.86;82.75
76551;BME280;65393;53.160;18.170;2022-12-18T03:29:35;103113.59;;;-3.85;82.69
76551;BME280;65393;53.160;18.170;2022-12-18T03:32:10;103115.34;;;-3.85;82.73
76551;BME280;65393;53.160;18.170;2022-12-18T03:34:40;103120.32;;;-3.86;82.88
76551;BME280;65393;53.160;18.170;2022-12-18T03:37:09;103124.58;;;-3.88;82.76
76551;BME280;65393;53.160;18.170;2022-12-18T03:39:36;103123.90;;;-3.90;82.63
76551;BME280;65393;53.160;18.170;2022-12-18T03:42:16;103125.48;;;-3.93;82.64
76551;BME280;65393;53.160;18.170;2022-12-18T03:45:04;103134.30;;;-3.93;82.64
76551;BME280;65393;53.160;18.170;2022-12-18T03:48:28;103140.83;;;-3.94;82.81
76551;BME280;65393;53.160;18.170;2022-12-18T03:53:32;103144.71;;;-3.96;82.76
76551;BME280;65393;53.160;18.170;2022-12-18T03:56:02;103140.06;;;-3.93;82.77
76551;BME280;65393;53.160;18.170;2022-12-18T03:58:35;103138.52;;;-3.89;82.65
76551;BME280;65393;53.160;18.170;2022-12-18T04:01:20;103147.27;;;-3.91;82.66
76551;BME280;65393;53.160;18.170;2022-12-18T04:03:50;103152.54;;;-3.90;82.73
76551;BME280;65393;53.160;18.170;2022-12-18T04:06:18;103154.19;;;-3.92;82.78
76551;BME280;65393;53.160;18.170;2022-12-18T04:08:46;103154.67;;;-3.92;82.64
76551;BME280;65393;53.160;18.170;2022-12-18T04:11:16;103148.64;;;-3.91;82.68
76551;BME280;65393;53.160;18.170;2022-12-18T04:13:44;103155.05;;;-3.92;82.54
76551;BME280;65393;53.160;18.170;2022-12-18T04:16:19;103157.27;;;-3.92;82.62
76551;BME280;65393;53.160;18.170;2022-12-18T04:18:46;103157.69;;;-3.91;82.63
76551;BME280;65393;53.160;18.170;2022-12-18T04:21:14;103155.70;;;-3.90;82.61
76551;BME280;65393;53.160;18.170;2022-12-18T04:23:42;103151.45;;;-3.88;82.51
76551;BME280;65393;53.160;18.170;2022-12-18T04:26:08;103155.73;;;-3.89;82.61
76551;BME280;65393;53.160;18.170;2022-12-18T04:28:55;103156.69;;;-3.88;82.61
76551;BME280;65393;53.160;18.170;2022-12-18T04:31:22;103155.98;;;-3.85;82.62
76551;BME280;65393;53.160;18.170;2022-12-18T04:33:50;103161.98;;;-3.83;82.49
76551;BME280;65393;53.160;18.170;2022-12-18T04:36:17;103168.08;;;-3.83;82.40
76551;BME280;65393;53.160;18.170;2022-12-18T04:38:45;103170.27;;;-3.83;82.43
76551;BME280;65393;53.160;18.170;2022-12-18T04:41:14;103173.73;;;-3.84;82.40
76551;BME280;65393;53.160;18.170;2022-12-18T04:43:41;103174.73;;;-3.84;82.40
76551;BME280;65393;53.160;18.170;2022-12-18T04:46:08;103174.44;;;-3.87;82.53
76551;BME280;65393;53.160;18.170;2022-12-18T04:48:36;103175.77;;;-3.88;82.41
76551;BME280;65393;53.160;18.170;2022-12-18T04:51:04;103181.05;;;-3.86;82.35
76551;BME280;65393;53.160;18.170;2022-12-18T04:53:32;103184.36;;;-3.83;82.32
76551;BME280;65393;53.160;18.170;2022-12-18T04:56:07;103184.22;;;-3.82;82.08
76551;BME280;65393;53.160;18.170;2022-12-18T04:58:36;103183.09;;;-3.87;82.02
76551;BME280;65393;53.160;18.170;2022-12-18T05:01:04;103188.59;;;-3.90;82.12
76551;BME280;65393;53.160;18.170;2022-12-18T05:03:31;103191.52;;;-3.94;82.15
76551;BME280;65393;53.160;18.170;2022-12-18T05:05:58;103191.41;;;-3.95;82.12
76551;BME280;65393;53.160;18.170;2022-12-18T05:08:25;103192.84;;;-3.98;82.07
76551;BME280;65393;53.160;18.170;2022-12-18T05:11:08;103196.21;;;-3.99;82.20
76551;BME280;65393;53.160;18.170;2022-12-18T05:13:36;103194.05;;;-4.00;81.97
76551;BME280;65393;53.160;18.170;2022-12-18T05:16:04;103195.73;;;-4.01;81.95
76551;BME280;65393;53.160;18.170;2022-12-18T05:18:31;103199.52;;;-4.05;82.04
76551;BME280;65393;53.160;18.170;2022-12-18T05:20:58;103207.71;;;-4.10;82.09
76551;BME280;65393;53.160;18.170;2022-12-18T05:23:24;103206.27;;;-4.13;82.19
76551;BME280;65393;53.160;18.170;2022-12-18T05:25:59;103211.38;;;-4.18;82.33
76551;BME280;65393;53.160;18.170;2022-12-18T05:28:28;103220.30;;;-4.22;82.41
76551;BME280;65393;53.160;18.170;2022-12-18T05:30:57;103225.48;;;-4.25;82.23
76551;BME280;65393;53.160;18.170;2022-12-18T05:33:26;103232.20;;;-4.28;82.34
76551;BME280;65393;53.160;18.170;2022-12-18T05:35:56;103244.13;;;-4.29;82.24
76551;BME280;65393;53.160;18.170;2022-12-18T05:38:24;103244.93;;;-4.33;82.39
76551;BME280;65393;53.160;18.170;2022-12-18T05:40:52;103244.63;;;-4.38;82.41
76551;BME280;65393;53.160;18.170;2022-12-18T05:43:20;103250.80;;;-4.41;82.44
76551;BME280;65393;53.160;18.170;2022-12-18T05:45:49;103251.66;;;-4.44;82.73
76551;BME280;65393;53.160;18.170;2022-12-18T05:48:16;103255.52;;;-4.47;82.57
76551;BME280;65393;53.160;18.170;2022-12-18T05:50:44;103256.26;;;-4.46;82.52
76551;BME280;65393;53.160;18.170;2022-12-18T05:53:17;103257.69;;;-4.42;82.70
76551;BME280;65393;53.160;18.170;2022-12-18T05:55:45;103260.88;;;-4.41;82.55
76551;BME280;65393;53.160;18.170;2022-12-18T05:58:12;103264.80;;;-4.42;82.58
76551;BME280;65393;53.160;18.170;2022-12-18T06:00:41;103266.20;;;-4.42;82.83
76551;BME280;65393;53.160;18.170;2022-12-18T06:03:09;103265.67;;;-4.45;82.66
76551;BME280;65393;53.160;18.170;2022-12-18T06:05:39;103271.34;;;-4.49;82.55
76551;BME280;65393;53.160;18.170;2022-12-18T06:08:06;103273.63;;;-4.51;82.57
76551;BME280;65393;53.160;18.170;2022-12-18T06:10:33;103271.95;;;-4.50;82.60
76551;BME280;65393;53.160;18.170;2022-12-18T06:13:00;103274.41;;;-4.50;82.69
76551;BME280;65393;53.160;18.170;2022-12-18T06:15:27;103277.95;;;-4.51;82.78
76551;BME280;65393;53.160;18.170;2022-12-18T06:17:54;103279.73;;;-4.53;82.68
76551;BME280;65393;53.160;18.170;2022-12-18T06:20:20;103287.40;;;-4.55;82.78
76551;BME280;65393;53.160;18.170;2022-12-18T06:22:47;103293.77;;;-4.56;82.61
76551;BME280;65393;53.160;18.170;2022-12-18T06:25:14;103298.00;;;-4.57;82.69
76551;BME280;65393;53.160;18.170;2022-12-18T06:27:41;103301.39;;;-4.61;82.70
76551;BME280;65393;53.160;18.170;2022-12-18T06:30:09;103305.05;;;-4.63;82.76
76551;BME280;65393;53.160;18.170;2022-12-18T06:32:36;103308.34;;;-4.63;82.77
76551;BME280;65393;53.160;18.170;2022-12-18T06:35:02;103307.77;;;-4.62;82.78
76551;BME280;65393;53.160;18.170;2022-12-18T06:37:31;103308.73;;;-4.60;82.72
76551;BME280;65393;53.160;18.170;2022-12-18T06:39:57;103313.56;;;-4.61;82.61
76551;BME280;65393;53.160;18.170;2022-12-18T06:42:24;103318.27;;;-4.63;82.59
76551;BME280;65393;53.160;18.170;2022-12-18T06:44:51;103323.63;;;-4.65;82.52
76551;BME280;65393;53.160;18.170;2022-12-18T06:47:18;103324.08;;;-4.72;82.45
76551;BME280;65393;53.160;18.170;2022-12-18T06:49:45;103332.89;;;-4.77;82.32
76551;BME280;65393;53.160;18.170;2022-12-18T06:52:11;103334.94;;;-4.83;82.25
76551;BME280;65393;53.160;18.170;2022-12-18T06:54:38;103340.04;;;-4.87;82.28
76551;BME280;65393;53.160;18.170;2022-12-18T06:57:05;103338.91;;;-4.89;82.28
76551;BME280;65393;53.160;18.170;2022-12-18T06:59:32;103344.17;;;-4.90;82.13
76551;BME280;65393;53.160;18.170;2022-12-18T07:01:58;103345.75;;;-4.95;82.21
76551;BME280;65393;53.160;18.170;2022-12-18T07:04:29;103352.92;;;-5.01;82.33
76551;BME280;65393;53.160;18.170;2022-12-18T07:06:56;103357.67;;;-5.08;82.22
76551;BME280;65393;53.160;18.170;2022-12-18T07:09:24;103364.81;;;-5.15;82.29
76551;BME280;65393;53.160;18.170;2022-12-18T07:11:51;103368.80;;;-5.23;82.33
76551;BME280;65393;53.160;18.170;2022-12-18T07:14:17;103373.88;;;-5.27;82.19
76551;BME280;65393;53.160;18.170;2022-12-18T07:16:44;103376.26;;;-5.31;82.32
76551;BME280;65393;53.160;18.170;2022-12-18T07:19:11;103381.48;;;-5.32;82.29
76551;BME280;65393;53.160;18.170;2022-12-18T07:21:37;103380.65;;;-5.34;82.43
76551;BME280;65393;53.160;18.170;2022-12-18T07:24:05;103384.90;;;-5.38;82.54
76551;BME280;65393;53.160;18.170;2022-12-18T07:26:32;103391.69;;;-5.42;82.59
76551;BME280;65393;53.160;18.170;2022-12-18T07:28:59;103393.74;;;-5.45;82.57
76551;BME280;65393;53.160;18.170;2022-12-18T07:31:26;103394.46;;;-5.47;82.52
76551;BME280;65393;53.160;18.170;2022-12-18T07:33:53;103397.02;;;-5.47;82.79
76551;BME280;65393;53.160;18.170;2022-12-18T07:36:20;103403.06;;;-5.45;82.67
76551;BME280;65393;53.160;18.170;2022-12-18T07:38:50;103410.02;;;-5.45;82.28
76551;BME280;65393;53.160;18.170;2022-12-18T07:41:18;103410.80;;;-5.44;82.51
76551;BME280;65393;53.160;18.170;2022-12-18T07:43:45;103409.79;;;-5.46;82.54
76551;BME280;65393;53.160;18.170;2022-12-18T07:46:13;103411.97;;;-5.51;82.49
76551;BME280;65393;53.160;18.170;2022-12-18T07:48:42;103412.90;;;-5.56;82.90
76551;BME280;65393;53.160;18.170;2022-12-18T07:51:10;103414.98;;;-5.56;82.76
76551;BME280;65393;53.160;18.170;2022-12-18T07:53:40;103420.59;;;-5.57;82.53
76551;BME280;65393;53.160;18.170;2022-12-18T07:56:10;103430.92;;;-5.60;82.97
76551;BME280;65393;53.160;18.170;2022-12-18T07:58:37;103432.45;;;-5.63;82.98
76551;BME280;65393;53.160;18.170;2022-12-18T08:01:06;103429.96;;;-5.69;82.53
76551;BME280;65393;53.160;18.170;2022-12-18T08:03:33;103428.69;;;-5.77;82.82
76551;BME280;65393;53.160;18.170;2022-12-18T08:06:00;103431.38;;;-5.80;82.93
76551;BME280;65393;53.160;18.170;2022-12-18T08:08:28;103427.94;;;-5.80;82.85
76551;BME280;65393;53.160;18.170;2022-12-18T08:10:58;103428.28;;;-5.80;82.75
76551;BME280;65393;53.160;18.170;2022-12-18T08:13:25;103438.13;;;-5.82;82.91
76551;BME280;65393;53.160;18.170;2022-12-18T08:16:00;103447.65;;;-5.87;82.94
76551;BME280;65393;53.160;18.170;2022-12-18T08:18:27;103455.61;;;-5.92;82.79
76551;BME280;65393;53.160;18.170;2022-12-18T08:20:55;103455.11;;;-5.95;82.86
76551;BME280;65393;53.160;18.170;2022-12-18T08:23:22;103461.64;;;-5.93;82.79
76551;BME280;65393;53.160;18.170;2022-12-18T08:25:48;103462.67;;;-5.90;82.71
76551;BME280;65393;53.160;18.170;2022-12-18T08:28:16;103464.23;;;-5.88;82.80
76551;BME280;65393;53.160;18.170;2022-12-18T08:30:43;103466.25;;;-5.86;82.96
76551;BME280;65393;53.160;18.170;2022-12-18T08:33:11;103473.24;;;-5.85;82.87
76551;BME280;65393;53.160;18.170;2022-12-18T08:35:39;103475.78;;;-5.83;82.95
76551;BME280;65393;53.160;18.170;2022-12-18T08:38:05;103474.45;;;-5.80;82.74
76551;BME280;65393;53.160;18.170;2022-12-18T08:40:32;103476.90;;;-5.80;82.68
76551;BME280;65393;53.160;18.170;2022-12-18T08:42:59;103485.16;;;-5.78;82.72
76551;BME280;65393;53.160;18.170;2022-12-18T08:45:44;103488.66;;;-5.75;82.41
76551;BME280;65393;53.160;18.170;2022-12-18T08:48:11;103492.62;;;-5.73;82.70
76551;BME280;65393;53.160;18.170;2022-12-18T08:50:41;103494.73;;;-5.77;82.20
76551;BME280;65393;53.160;18.170;2022-12-18T08:53:15;103496.89;;;-5.78;82.60
76551;BME280;65393;53.160;18.170;2022-12-18T08:55:43;103499.71;;;-5.77;82.31
76551;BME280;65393;53.160;18.170;2022-12-18T08:58:11;103499.38;;;-5.77;82.15
76551;BME280;65393;53.160;18.170;2022-12-18T09:00:40;103494.89;;;-5.75;82.57
76551;BME280;65393;53.160;18.170;2022-12-18T09:03:14;103487.95;;;-5.71;82.34
76551;BME280;65393;53.160;18.170;2022-12-18T09:05:41;103484.77;;;-5.69;82.36
76551;BME280;65393;53.160;18.170;2022-12-18T09:08:15;103479.59;;;-5.69;82.10
76551;BME280;65393;53.160;18.170;2022-12-18T09:10:48;103481.38;;;-5.66;82.34
76551;BME280;65393;53.160;18.170;2022-12-18T09:13:16;103484.81;;;-5.68;82.28
76551;BME280;65393;53.160;18.170;2022-12-18T09:15:54;103487.52;;;-5.74;82.30
76551;BME280;65393;53.160;18.170;2022-12-18T09:18:23;103494.73;;;-5.82;82.39
76551;BME280;65393;53.160;18.170;2022-12-18T09:20:50;103494.13;;;-5.85;82.46
76551;BME280;65393;53.160;18.170;2022-12-18T09:23:19;103486.80;;;-5.81;82.24
76551;BME280;65393;53.160;18.170;2022-12-18T09:25:46;103478.94;;;-5.75;81.84
76551;BME280;65393;53.160;18.170;2022-12-18T09:28:14;103472.44;;;-5.70;81.80
76551;BME280;65393;53.160;18.170;2022-12-18T09:30:44;103464.36;;;-5.66;81.57
76551;BME280;65393;53.160;18.170;2022-12-18T09:33:11;103459.36;;;-5.71;81.70
76551;BME280;65393;53.160;18.170;2022-12-18T09:35:39;103454.05;;;-5.75;81.50
76551;BME280;65393;53.160;18.170;2022-12-18T09:38:08;103452.69;;;-5.77;81.76
76551;BME280;65393;53.160;18.170;2022-12-18T09:40:46;103449.70;;;-5.76;82.10
76551;BME280;65393;53.160;18.170;2022-12-18T09:43:19;103459.07;;;-5.73;82.09
76551;BME280;65393;53.160;18.170;2022-12-18T09:45:51;103461.00;;;-5.68;82.24
76551;BME280;65393;53.160;18.170;2022-12-18T09:48:30;103465.52;;;-5.60;82.31
76551;BME280;65393;53.160;18.170;2022-12-18T09:51:02;103467.33;;;-5.52;82.17
76551;BME280;65393;53.160;18.170;2022-12-18T09:53:33;103470.52;;;-5.43;82.31
76551;BME280;65393;53.160;18.170;2022-12-18T09:56:03;103469.20;;;-5.37;81.98
76551;BME280;65393;53.160;18.170;2022-12-18T09:58:37;103465.14;;;-5.32;81.89
76551;BME280;65393;53.160;18.170;2022-12-18T10:01:21;103466.20;;;-5.24;81.61
76551;BME280;65393;53.160;18.170;2022-12-18T10:03:49;103460.49;;;-5.21;81.72
76551;BME280;65393;53.160;18.170;2022-12-18T10:06:28;103457.29;;;-5.23;81.65
76551;BME280;65393;53.160;18.170;2022-12-18T10:09:16;103453.00;;;-5.25;81.51
76551;BME280;65393;53.160;18.170;2022-12-18T10:14:29;103461.45;;;-5.27;81.45
76551;BME280;65393;53.160;18.170;2022-12-18T10:17:07;103468.16;;;-5.23;81.55
76551;BME280;65393;53.160;18.170;2022-12-18T10:19:57;103468.90;;;-5.17;81.52
76551;BME280;65393;53.160;18.170;2022-12-18T10:28:07;103477.40;;;-4.97;81.00
76551;BME280;65393;53.160;18.170;2022-12-18T10:30:38;103480.52;;;-4.99;80.26
76551;BME280;65393;53.160;18.170;2022-12-18T10:33:08;103483.17;;;-5.06;80.38
76551;BME280;65393;53.160;18.170;2022-12-18T10:35:36;103481.73;;;-5.12;80.11
76551;BME280;65393;53.160;18.170;2022-12-18T10:38:21;103486.70;;;-5.15;80.50
76551;BME280;65393;53.160;18.170;2022-12-18T10:43:36;103496.17;;;-5.18;80.60
76551;BME280;65393;53.160;18.170;2022-12-18T10:48:40;103484.73;;;-5.13;80.47
76551;BME280;65393;53.160;18.170;2022-12-18T10:51:25;103485.88;;;-5.12;80.71
76551;BME280;65393;53.160;18.170;2022-12-18T10:53:59;103489.18;;;-5.12;80.46
76551;BME280;65393;53.160;18.170;2022-12-18T10:56:28;103488.54;;;-5.08;80.45
76551;BME280;65393;53.160;18.170;2022-12-18T10:59:06;103489.77;;;-5.06;80.79
76551;BME280;65393;53.160;18.170;2022-12-18T11:01:56;103490.27;;;-5.06;80.58
76551;BME280;65393;53.160;18.170;2022-12-18T11:04:28;103494.98;;;-5.10;80.58
76551;BME280;65393;53.160;18.170;2022-12-18T11:07:06;103509.91;;;-5.12;80.69
76551;BME280;65393;53.160;18.170;2022-12-18T11:09:35;103521.64;;;-5.08;80.57
76551;BME280;65393;53.160;18.170;2022-12-18T11:12:15;103520.96;;;-5.05;80.60
76551;BME280;65393;53.160;18.170;2022-12-18T11:14:55;103516.61;;;-5.01;80.74
76551;BME280;65393;53.160;18.170;2022-12-18T11:17:35;103513.83;;;-4.99;80.74
76551;BME280;65393;53.160;18.170;2022-12-18T11:20:18;103514.49;;;-4.99;80.41
76551;BME280;65393;53.160;18.170;2022-12-18T11:22:56;103511.73;;;-4.99;80.53
76551;BME280;65393;53.160;18.170;2022-12-18T11:25:24;103507.41;;;-4.96;80.61
76551;BME280;65393;53.160;18.170;2022-12-18T11:27:53;103509.96;;;-4.94;80.44
76551;BME280;65393;53.160;18.170;2022-12-18T11:32:51;103512.95;;;-4.96;80.18
76551;BME280;65393;53.160;18.170;2022-12-18T11:35:33;103508.07;;;-4.97;80.47
76551;BME280;65393;53.160;18.170;2022-12-18T11:38:17;103500.75;;;-4.95;80.44
76551;BME280;65393;53.160;18.170;2022-12-18T11:40:58;103498.27;;;-4.93;80.52
76551;BME280;65393;53.160;18.170;2022-12-18T11:46:37;103499.09;;;-4.92;80.42
76551;BME280;65393;53.160;18.170;2022-12-18T11:49:17;103496.13;;;-4.89;80.32
76551;BME280;65393;53.160;18.170;2022-12-18T11:51:58;103493.97;;;-4.93;80.51
76551;BME280;65393;53.160;18.170;2022-12-18T11:54:27;103495.64;;;-4.94;80.36
76551;BME280;65393;53.160;18.170;2022-12-18T11:57:06;103494.45;;;-4.96;80.42
76551;BME280;65393;53.160;18.170;2022-12-18T12:16:57;103509.63;;;-5.04;80.52
76551;BME280;65393;53.160;18.170;2022-12-18T12:25:40;103534.88;;;-5.27;79.69
76551;BME280;65393;53.160;18.170;2022-12-18T12:28:19;103536.61;;;-5.39;80.34
76551;BME280;65393;53.160;18.170;2022-12-18T12:39:23;103549.08;;;-5.41;80.34
76551;BME280;65393;53.160;18.170;2022-12-18T12:41:55;103558.82;;;-5.48;80.51
76551;BME280;65393;53.160;18.170;2022-12-18T12:44:56;103568.79;;;-5.56;80.62
76551;BME280;65393;53.160;18.170;2022-12-18T12:47:30;103574.58;;;-5.59;80.53
76551;BME280;65393;53.160;18.170;2022-12-18T12:49:58;103571.24;;;-5.58;80.80
76551;BME280;65393;53.160;18.170;2022-12-18T12:52:58;103578.13;;;-5.56;80.91
76551;BME280;65393;53.160;18.170;2022-12-18T12:55:28;103582.33;;;-5.50;81.03
76551;BME280;65393;53.160;18.170;2022-12-18T12:58:21;103582.79;;;-5.44;80.93
76551;BME280;65393;53.160;18.170;2022-12-18T13:03:37;103574.17;;;-5.41;80.59
76551;BME280;65393;53.160;18.170;2022-12-18T13:06:19;103578.59;;;-5.45;80.70
76551;BME280;65393;53.160;18.170;2022-12-18T13:08:56;103582.15;;;-5.48;81.05
76551;BME280;65393;53.160;18.170;2022-12-18T13:11:41;103588.88;;;-5.51;80.86
76551;BME280;65393;53.160;18.170;2022-12-18T13:14:34;103591.17;;;-5.55;80.62
76551;BME280;65393;53.160;18.170;2022-12-18T13:19:50;103585.05;;;-5.65;80.53
76551;BME280;65393;53.160;18.170;2022-12-18T13:22:28;103590.71;;;-5.70;81.02
76551;BME280;65393;53.160;18.170;2022-12-18T13:24:56;103586.40;;;-5.75;81.05
76551;BME280;65393;53.160;18.170;2022-12-18T13:27:46;103584.27;;;-5.78;80.83
76551;BME280;65393;53.160;18.170;2022-12-18T13:41:26;103590.31;;;-5.95;81.06
76551;BME280;65393;53.160;18.170;2022-12-18T13:43:55;103584.61;;;-6.00;80.91
76551;BME280;65393;53.160;18.170;2022-12-18T13:46:30;103585.27;;;-6.00;80.93
76551;BME280;65393;53.160;18.170;2022-12-18T13:51:51;103593.52;;;-6.05;81.46
76551;BME280;65393;53.160;18.170;2022-12-18T13:54:25;103595.20;;;-6.08;81.52
76551;BME280;65393;53.160;18.170;2022-12-18T13:56:55;103594.23;;;-6.12;81.51
76551;BME280;65393;53.160;18.170;2022-12-18T13:59:32;103586.98;;;-6.14;81.84
76551;BME280;65393;53.160;18.170;2022-12-18T14:02:13;103588.83;;;-6.15;81.40
76551;BME280;65393;53.160;18.170;2022-12-18T14:04:40;103585.17;;;-6.13;81.47
76551;BME280;65393;53.160;18.170;2022-12-18T14:09:42;103593.65;;;-6.08;81.56
76551;BME280;65393;53.160;18.170;2022-12-18T14:12:19;103591.54;;;-6.06;81.70
76551;BME280;65393;53.160;18.170;2022-12-18T14:20:43;103594.05;;;-6.10;81.17
76551;BME280;65393;53.160;18.170;2022-12-18T14:26:00;103610.77;;;-6.08;81.77
76551;BME280;65393;53.160;18.170;2022-12-18T14:28:27;103610.77;;;-6.08;81.98
76551;BME280;65393;53.160;18.170;2022-12-18T14:30:54;103604.24;;;-6.10;81.69
76551;BME280;65393;53.160;18.170;2022-12-18T14:33:26;103598.09;;;-6.11;81.77
76551;BME280;65393;53.160;18.170;2022-12-18T14:36:02;103600.54;;;-6.13;81.82
76551;BME280;65393;53.160;18.170;2022-12-18T14:38:37;103608.72;;;-6.15;81.61
76551;BME280;65393;53.160;18.170;2022-12-18T14:41:06;103610.20;;;-6.18;81.91
76551;BME280;65393;53.160;18.170;2022-12-18T14:43:35;103604.77;;;-6.21;81.79
76551;BME280;65393;53.160;18.170;2022-12-18T14:46:04;103603.13;;;-6.22;81.66